createdAt,value
2023-05-30T00:02:01.638Z,96954.19
2023-05-30T00:04:28.230Z,96959.34
2023-05-30T00:06:54.793Z,96961.94
2023-05-30T00:09:21.357Z,96957.63
2023-05-30T00:11:49.509Z,96974.03
2023-05-30T00:14:21.531Z,96964.56
2023-05-30T00:16:48.452Z,96962.84
2023-05-30T00:19:14.975Z,96967.16
2023-05-30T00:21:41.646Z,96965.44
2023-05-30T00:24:08.478Z,96958.63
2023-05-30T00:26:35.011Z,96963.78
2023-05-30T00:29:01.607Z,96954.34
2023-05-30T00:31:30.603Z,96963.81
2023-05-30T00:33:57.157Z,96962.16
2023-05-30T00:36:23.685Z,96966.41
2023-05-30T00:38:50.284Z,96958.75
2023-05-30T00:41:17.928Z,96966.53
2023-05-30T00:43:45.313Z,96956.25
2023-05-30T00:46:13.127Z,96964.84
2023-05-30T00:48:40.066Z,96960.53
2023-05-30T00:51:11.839Z,96952.91
2023-05-30T00:53:41.385Z,96964.09
2023-05-30T00:56:08.476Z,96962.41
2023-05-30T00:58:36.254Z,96966.72
2023-05-30T01:01:02.709Z,96959.84
2023-05-30T01:03:33.831Z,96967.56
2023-05-30T01:06:02.195Z,96960.66
2023-05-30T01:08:28.767Z,96957.25
2023-05-30T01:11:18.166Z,96952.97
2023-05-30T01:14:07.411Z,96953.03
2023-05-30T01:16:41.373Z,96960.78
2023-05-30T01:19:47.035Z,96959.06
2023-05-30T01:22:33.848Z,96962.56
2023-05-30T01:25:09.897Z,96958.25
2023-05-30T01:28:09.379Z,96953.19
2023-05-30T01:30:44.194Z,96950.66
2023-05-30T01:33:11.588Z,96953.22
2023-05-30T01:35:38.181Z,96956.69
2023-05-30T01:38:04.863Z,96949.88
2023-05-30T01:40:31.441Z,96949.00
2023-05-30T01:43:24.737Z,96949.91
2023-05-30T01:45:57.152Z,96946.47
2023-05-30T01:48:35.082Z,96945.66
2023-05-30T01:51:08.062Z,96953.41
2023-05-30T01:53:41.193Z,96944.00
2023-05-30T01:56:10.320Z,96949.16
2023-05-30T01:58:37.974Z,96951.72
2023-05-30T02:01:07.501Z,96944.88
2023-05-30T02:03:34.358Z,96940.59
2023-05-30T02:06:01.976Z,96944.94
2023-05-30T02:08:28.964Z,96948.38
2023-05-30T02:10:55.913Z,96944.09
2023-05-30T02:13:22.812Z,96942.34
2023-05-30T02:15:49.308Z,96940.72
2023-05-30T02:18:15.889Z,96943.28
2023-05-30T02:20:42.394Z,96939.88
2023-05-30T02:23:09.127Z,96943.31
2023-05-30T02:25:35.828Z,96941.63
2023-05-30T02:28:02.352Z,96942.50
2023-05-30T02:30:29.057Z,96939.09
2023-05-30T02:32:55.640Z,96940.84
2023-05-30T02:35:22.442Z,96936.53
2023-05-30T02:37:49.195Z,96932.31
2023-05-30T02:40:15.842Z,96930.59
2023-05-30T02:42:42.384Z,96937.50
2023-05-30T02:45:09.150Z,96945.22
2023-05-30T02:47:35.709Z,96934.06
2023-05-30T02:50:02.285Z,96940.06
2023-05-30T02:52:29.998Z,96942.66
2023-05-30T02:54:56.628Z,96945.22
2023-05-30T02:57:23.342Z,96944.38
2023-05-30T02:59:49.857Z,96952.13
2023-05-30T03:02:16.707Z,96951.28
2023-05-30T03:04:46.619Z,96935.84
2023-05-30T03:07:14.483Z,96947.00
2023-05-30T03:09:41.677Z,96949.59
2023-05-30T03:12:08.252Z,96949.56
2023-05-30T03:14:34.702Z,96960.72
2023-05-30T03:17:01.565Z,96962.44
2023-05-30T03:19:28.099Z,96959.00
2023-05-30T03:21:54.600Z,96961.59
2023-05-30T03:24:21.278Z,96960.72
2023-05-30T03:26:47.761Z,96952.09
2023-05-30T03:29:14.324Z,96965.84
2023-05-30T03:31:41.252Z,96959.00
2023-05-30T03:34:08.116Z,96953.84
2023-05-30T03:36:34.651Z,96956.41
2023-05-30T03:39:01.259Z,96958.13
2023-05-30T03:41:27.836Z,96958.97
2023-05-30T03:43:54.549Z,96965.81
2023-05-30T03:46:22.649Z,96964.97
2023-05-30T03:48:49.368Z,96961.53
2023-05-30T03:51:17.214Z,96963.25
2023-05-30T03:53:43.831Z,96967.53
2023-05-30T03:56:10.645Z,96976.09
2023-05-30T03:58:37.149Z,96982.09
2023-05-30T04:01:03.738Z,96983.81
2023-05-30T04:03:30.585Z,96977.81
2023-05-30T04:05:57.145Z,96980.38
2023-05-30T04:08:23.646Z,96973.53
2023-05-30T04:10:50.515Z,96973.53
2023-05-30T04:13:17.115Z,96963.25
2023-05-30T04:15:43.612Z,96965.81
2023-05-30T04:18:10.262Z,96975.25
2023-05-30T04:20:36.889Z,96971.81
2023-05-30T04:23:03.518Z,96976.16
2023-05-30T04:25:30.144Z,96981.28
2023-05-30T04:27:57.632Z,96975.28
2023-05-30T04:30:24.160Z,96975.28
2023-05-30T04:32:50.928Z,96974.41
2023-05-30T04:35:17.472Z,96975.28
2023-05-30T04:37:45.537Z,96978.69
2023-05-30T04:40:13.762Z,96988.16
2023-05-30T04:42:44.183Z,96997.56
2023-05-30T04:45:11.851Z,96985.56
2023-05-30T04:47:40.172Z,96990.69
2023-05-30T04:50:07.549Z,96988.97
2023-05-30T04:52:34.101Z,96994.13
2023-05-30T04:55:01.128Z,96994.97
2023-05-30T04:57:27.675Z,96996.69
2023-05-30T04:59:54.241Z,96998.38
2023-05-30T05:02:20.857Z,97002.66
2023-05-30T05:04:47.309Z,97000.06
2023-05-30T05:07:13.768Z,97000.03
2023-05-30T05:09:40.294Z,97003.44
2023-05-30T05:12:07.329Z,97001.72
2023-05-30T05:14:33.766Z,97005.94
2023-05-30T05:17:00.215Z,97001.59
2023-05-30T05:19:26.862Z,97001.53
2023-05-30T05:21:53.466Z,97003.25
2023-05-30T05:24:19.901Z,97008.31
2023-05-30T05:26:46.480Z,97005.72
2023-05-30T05:29:13.144Z,97018.53
2023-05-30T05:31:39.656Z,97008.16
2023-05-30T05:34:06.143Z,97008.06
2023-05-30T05:36:32.747Z,97002.00
2023-05-30T05:38:59.192Z,97010.56
2023-05-30T05:41:26.057Z,97015.69
2023-05-30T05:43:52.602Z,97015.63
2023-05-30T05:46:19.187Z,97023.31
2023-05-30T05:48:45.977Z,97020.66
2023-05-30T05:51:12.947Z,97023.19
2023-05-30T05:53:39.674Z,97024.84
2023-05-30T05:56:06.529Z,97018.78
2023-05-30T05:58:33.131Z,97015.34
2023-05-30T06:01:00.077Z,97016.94
2023-05-30T06:03:26.924Z,97014.13
2023-05-30T06:05:53.508Z,97013.91
2023-05-30T06:08:20.355Z,97015.50
2023-05-30T06:10:46.998Z,97017.09
2023-05-30T06:13:13.541Z,97024.84
2023-05-30T06:15:40.159Z,97027.44
2023-05-30T06:18:06.805Z,97023.06
2023-05-30T06:20:33.720Z,97030.66
2023-05-30T06:23:00.242Z,97033.19
2023-05-30T06:25:31.558Z,97029.72
2023-05-30T06:27:58.307Z,97035.53
2023-05-30T06:30:24.889Z,97039.72
2023-05-30T06:32:51.554Z,97040.34
2023-05-30T06:35:18.246Z,97038.38
2023-05-30T06:37:44.908Z,97035.44
2023-05-30T06:40:11.862Z,97028.41
2023-05-30T06:42:38.511Z,97035.00
2023-05-30T06:45:05.750Z,97044.34
2023-05-30T06:47:32.310Z,97049.22
2023-05-30T06:49:58.950Z,97039.44
2023-05-30T06:52:25.594Z,97049.44
2023-05-30T06:54:52.026Z,97044.78
2023-05-30T06:57:18.554Z,97045.97
2023-05-30T06:59:45.051Z,97045.66
2023-05-30T07:02:11.677Z,97044.84
2023-05-30T07:04:38.318Z,97035.94
2023-05-30T07:07:05.470Z,97041.03
2023-05-30T07:09:32.497Z,97044.28
2023-05-30T07:11:59.123Z,97045.66
2023-05-30T07:14:26.129Z,97033.16
2023-05-30T07:16:53.487Z,97036.38
2023-05-30T07:19:20.300Z,97022.41
2023-05-30T07:21:46.751Z,97028.13
2023-05-30T07:24:13.182Z,97028.63
2023-05-30T07:26:39.758Z,97025.94
2023-05-30T07:29:06.272Z,97023.84
2023-05-30T07:31:32.802Z,97023.13
2023-05-30T07:33:59.256Z,97024.72
2023-05-30T07:36:25.915Z,97022.91
2023-05-30T07:38:52.464Z,97020.03
2023-05-30T07:41:19.192Z,97018.81
2023-05-30T07:43:45.701Z,97027.28
2023-05-30T07:46:12.369Z,97018.59
2023-05-30T07:48:39.013Z,97026.16
2023-05-30T07:51:07.157Z,97026.53
2023-05-30T07:53:33.633Z,97022.63
2023-05-30T07:56:00.059Z,97020.66
2023-05-30T07:58:26.617Z,97018.59
2023-05-30T08:00:53.043Z,97018.16
2023-05-30T08:03:19.742Z,97012.91
2023-05-30T08:05:52.252Z,97013.59
2023-05-30T08:08:19.490Z,97012.19
2023-05-30T08:10:46.043Z,97003.41
2023-05-30T08:13:15.040Z,97020.41
2023-05-30T08:15:44.994Z,97019.47
2023-05-30T08:18:13.024Z,97015.31
2023-05-30T08:20:41.253Z,97021.59
2023-05-30T08:23:07.948Z,97022.78
2023-05-30T08:25:36.314Z,97025.88
2023-05-30T08:28:03.709Z,97030.34
2023-05-30T08:30:31.158Z,97031.31
2023-05-30T08:32:58.809Z,97027.84
2023-05-30T08:35:25.421Z,97030.31
2023-05-30T08:37:51.964Z,97026.72
2023-05-30T08:40:20.210Z,97034.53
2023-05-30T08:42:46.995Z,97032.34
2023-05-30T08:45:13.734Z,97035.50
2023-05-30T08:47:40.589Z,97039.13
2023-05-30T08:50:10.758Z,97038.88
2023-05-30T08:52:39.691Z,97039.66
2023-05-30T08:55:12.872Z,97044.50
2023-05-30T08:57:44.213Z,97041.41
2023-05-30T09:00:15.432Z,97044.38
2023-05-30T09:02:44.446Z,97044.94
2023-05-30T09:05:16.944Z,97037.81
2023-05-30T09:07:45.473Z,97047.31
2023-05-30T09:10:13.001Z,97043.59
2023-05-30T09:12:42.039Z,97052.41
2023-05-30T09:15:08.896Z,97043.81
2023-05-30T09:17:35.513Z,97045.56
2023-05-30T09:20:02.131Z,97051.50
2023-05-30T09:22:29.146Z,97039.53
2023-05-30T09:24:58.944Z,97049.50
2023-05-30T09:27:26.936Z,97034.63
2023-05-30T09:29:53.688Z,97040.59
2023-05-30T09:32:22.169Z,97044.59
2023-05-30T09:34:57.217Z,97039.28
2023-05-30T09:37:27.201Z,97049.34
2023-05-30T09:40:09.032Z,97049.53
2023-05-30T09:42:39.944Z,97048.84
2023-05-30T09:45:13.654Z,97049.28
2023-05-30T09:47:45.899Z,97049.84
2023-05-30T09:50:21.080Z,97053.16
2023-05-30T09:52:57.532Z,97051.34
2023-05-30T09:55:26.155Z,97047.06
2023-05-30T09:57:53.469Z,97057.25
2023-05-30T10:00:25.735Z,97048.97
2023-05-30T10:02:55.025Z,97052.53
2023-05-30T10:05:26.955Z,97050.28
2023-05-30T10:07:55.541Z,97047.53
2023-05-30T10:10:22.382Z,97048.53
2023-05-30T10:12:51.164Z,97045.72
2023-05-30T10:15:19.643Z,97044.31
2023-05-30T10:18:10.335Z,97047.66
2023-05-30T10:20:39.479Z,97052.25
2023-05-30T10:23:09.393Z,97047.41
2023-05-30T10:25:38.493Z,97051.44
2023-05-30T10:28:09.191Z,97036.06
2023-05-30T10:30:35.758Z,97042.69
2023-05-30T10:33:13.042Z,97045.03
2023-05-30T10:35:39.760Z,97038.91
2023-05-30T10:38:08.867Z,97028.41
2023-05-30T10:40:53.381Z,97043.22
2023-05-30T10:43:41.990Z,97042.94
2023-05-30T10:46:16.868Z,97038.28
2023-05-30T10:48:52.538Z,97038.69
2023-05-30T10:51:20.502Z,97040.00
2023-05-30T10:53:48.440Z,97038.72
2023-05-30T10:56:42.446Z,97037.72
2023-05-30T10:59:16.169Z,97031.94
2023-05-30T11:01:42.765Z,97038.44
2023-05-30T11:04:13.904Z,97034.44
2023-05-30T11:06:45.933Z,97029.69
2023-05-30T11:09:18.307Z,97035.50
2023-05-30T11:11:58.770Z,97028.75
2023-05-30T11:14:27.956Z,97030.84
2023-05-30T11:17:06.336Z,97023.31
2023-05-30T11:19:40.651Z,97018.59
2023-05-30T11:22:14.402Z,97021.28
2023-05-30T11:24:42.140Z,97024.72
2023-05-30T11:27:14.357Z,97006.53
2023-05-30T11:29:50.905Z,97014.59
2023-05-30T11:32:23.403Z,97011.84
2023-05-30T11:35:01.672Z,97004.09
2023-05-30T11:37:36.589Z,96996.38
2023-05-30T11:40:06.534Z,96990.78
2023-05-30T11:42:33.438Z,96990.69
2023-05-30T11:44:59.955Z,96993.97
2023-05-30T11:47:44.610Z,96979.78
2023-05-30T11:50:12.420Z,96987.56
2023-05-30T11:52:40.146Z,96993.66
2023-05-30T11:55:07.079Z,96992.28
2023-05-30T11:57:34.125Z,96988.53
2023-05-30T12:00:01.161Z,96995.34
2023-05-30T12:02:33.753Z,96992.91
2023-05-30T12:05:05.303Z,96993.28
2023-05-30T12:07:33.163Z,96983.84
2023-05-30T12:09:59.751Z,96985.28
2023-05-30T12:12:27.861Z,96989.16
2023-05-30T12:15:00.040Z,96989.63
2023-05-30T12:17:27.377Z,96986.47
2023-05-30T12:20:07.652Z,96987.53
2023-05-30T12:22:34.541Z,96987.06
2023-05-30T12:25:05.518Z,96982.75
2023-05-30T12:27:32.614Z,96989.28
2023-05-30T12:30:15.018Z,96985.59
2023-05-30T12:32:42.211Z,96977.19
2023-05-30T12:35:09.482Z,96977.63
2023-05-30T12:37:36.416Z,96977.03
2023-05-30T12:40:04.178Z,96983.44
2023-05-30T12:42:32.171Z,96973.97
2023-05-30T12:45:00.437Z,96979.41
2023-05-30T12:47:28.351Z,96977.03
2023-05-30T12:49:56.093Z,96979.28
2023-05-30T12:52:26.944Z,96969.75
2023-05-30T12:54:53.904Z,96968.16
2023-05-30T12:57:25.542Z,96961.44
2023-05-30T12:59:53.320Z,96962.31
2023-05-30T13:02:21.679Z,96970.78
2023-05-30T13:04:48.304Z,96970.31
2023-05-30T13:07:14.836Z,96976.47
2023-05-30T13:09:41.340Z,96970.47
2023-05-30T13:12:11.153Z,96965.59
2023-05-30T13:14:38.954Z,96965.53
2023-05-30T13:17:06.517Z,96969.94
2023-05-30T13:19:33.384Z,96968.84
2023-05-30T13:22:03.551Z,96969.22
2023-05-30T13:24:31.701Z,96965.97
2023-05-30T13:26:59.100Z,96965.19
2023-05-30T13:29:26.767Z,96954.06
2023-05-30T13:31:53.707Z,96950.69
2023-05-30T13:34:20.257Z,96945.25
2023-05-30T13:36:46.735Z,96957.97
2023-05-30T13:39:13.755Z,96955.19
2023-05-30T13:41:41.781Z,96961.44
2023-05-30T13:44:08.578Z,96960.53
2023-05-30T13:49:08.842Z,96959.63
2023-05-30T13:51:35.976Z,96958.91
2023-05-30T13:54:04.298Z,96956.56
2023-05-30T13:56:31.161Z,96966.22
2023-05-30T13:58:59.480Z,96961.03
2023-05-30T14:01:28.110Z,96947.91
2023-05-30T14:03:54.810Z,96948.31
2023-05-30T14:06:21.517Z,96951.38
2023-05-30T14:08:47.996Z,96955.34
2023-05-30T14:11:15.059Z,96962.31
2023-05-30T14:13:42.323Z,96960.34
2023-05-30T14:16:10.430Z,96957.66
2023-05-30T14:18:38.894Z,96952.47
2023-05-30T14:21:05.650Z,96957.97
2023-05-30T14:23:34.114Z,96963.81
2023-05-30T14:26:01.065Z,96957.25
2023-05-30T14:28:27.924Z,96954.22
2023-05-30T14:30:54.825Z,96954.13
2023-05-30T14:33:21.669Z,96958.47
2023-05-30T14:35:48.291Z,96950.78
2023-05-30T14:38:14.862Z,96954.75
2023-05-30T14:40:41.663Z,96956.66
2023-05-30T14:43:08.278Z,96954.34
2023-05-30T14:45:34.864Z,96957.25
2023-05-30T14:48:01.619Z,96955.91
2023-05-30T14:50:28.241Z,96947.25
2023-05-30T14:52:54.907Z,96950.50
2023-05-30T14:55:22.794Z,96945.41
2023-05-30T14:57:50.927Z,96956.47
2023-05-30T15:00:19.458Z,96951.53
2023-05-30T15:02:46.529Z,96958.53
2023-05-30T15:05:13.137Z,96949.13
2023-05-30T15:07:39.691Z,96955.94
2023-05-30T15:10:06.860Z,96956.38
2023-05-30T15:12:33.441Z,96951.81
2023-05-30T15:15:01.406Z,96948.84
2023-05-30T15:17:29.060Z,96945.25
2023-05-30T15:19:56.025Z,96940.09
2023-05-30T15:22:22.525Z,96938.72
2023-05-30T15:24:49.341Z,96942.31
2023-05-30T15:27:16.087Z,96934.00
2023-05-30T15:29:43.022Z,96944.53
2023-05-30T15:32:09.784Z,96940.00
2023-05-30T15:34:37.330Z,96949.28
2023-05-30T15:37:04.113Z,96950.19
2023-05-30T15:39:31.029Z,96945.94
2023-05-30T15:41:57.626Z,96952.59
2023-05-30T15:44:24.144Z,96949.91
2023-05-30T15:46:57.550Z,96950.97
2023-05-30T15:49:25.219Z,96939.53
2023-05-30T15:51:52.567Z,96939.28
2023-05-30T15:54:22.881Z,96945.09
2023-05-30T15:56:50.254Z,96940.88
2023-05-30T15:59:17.123Z,96931.84
2023-05-30T16:01:43.660Z,96940.56
2023-05-30T16:04:10.569Z,96937.28
2023-05-30T16:06:37.331Z,96942.22
2023-05-30T16:09:04.605Z,96941.94
2023-05-30T16:11:31.242Z,96934.44
2023-05-30T16:13:58.129Z,96934.28
2023-05-30T16:16:24.774Z,96934.19
2023-05-30T16:18:51.393Z,96941.94
2023-05-30T16:21:18.021Z,96943.19
2023-05-30T16:23:44.668Z,96938.38
2023-05-30T16:26:11.300Z,96947.25
2023-05-30T16:28:37.964Z,96937.91
2023-05-30T16:31:04.792Z,96948.22
2023-05-30T16:33:31.354Z,96942.50
2023-05-30T16:36:07.103Z,96948.81
2023-05-30T16:38:36.209Z,96949.69
2023-05-30T16:41:11.672Z,96943.00
2023-05-30T16:43:40.426Z,96935.63
2023-05-30T16:46:07.089Z,96952.00
2023-05-30T16:48:33.737Z,96944.69
2023-05-30T16:51:00.637Z,96949.31
2023-05-30T16:53:27.514Z,96946.19
2023-05-30T16:55:57.526Z,96952.38
2023-05-30T16:58:24.486Z,96958.53
2023-05-30T17:00:51.394Z,96959.94
2023-05-30T17:03:18.260Z,96955.75
2023-05-30T17:05:44.887Z,96955.06
2023-05-30T17:08:13.202Z,96961.66
2023-05-30T17:10:42.019Z,96959.19
2023-05-30T17:13:09.057Z,96964.50
2023-05-30T17:15:35.917Z,96964.88
2023-05-30T17:18:02.771Z,96971.09
2023-05-30T17:20:29.650Z,96972.47
2023-05-30T17:22:56.334Z,96963.25
2023-05-30T17:25:22.891Z,96967.78
2023-05-30T17:27:49.535Z,96962.72
2023-05-30T17:30:16.484Z,96968.16
2023-05-30T17:32:43.048Z,96972.16
2023-05-30T17:35:10.388Z,96974.91
2023-05-30T17:37:37.124Z,96979.28
2023-05-30T17:40:03.989Z,96981.31
2023-05-30T17:42:30.759Z,96980.16
2023-05-30T17:44:57.465Z,96988.69
2023-05-30T17:47:24.099Z,96987.41
2023-05-30T17:49:50.786Z,96992.88
2023-05-30T17:52:17.503Z,96990.56
2023-05-30T17:54:44.401Z,96989.06
2023-05-30T17:57:11.119Z,97001.31
2023-05-30T17:59:38.061Z,96994.72
2023-05-30T18:02:05.550Z,96998.31
2023-05-30T18:04:33.994Z,97002.72
2023-05-30T18:07:01.389Z,97008.09
2023-05-30T18:09:28.327Z,97003.38
2023-05-30T18:11:55.694Z,97013.69
2023-05-30T18:14:24.392Z,97016.50
2023-05-30T18:16:50.927Z,97016.66
2023-05-30T18:19:17.456Z,97019.47
2023-05-30T18:21:44.208Z,97029.22
2023-05-30T18:24:11.121Z,97032.13
2023-05-30T18:26:37.696Z,97025.31
2023-05-30T18:29:04.235Z,97034.25
2023-05-30T18:31:31.330Z,97037.69
2023-05-30T18:33:57.827Z,97034.50
2023-05-30T18:36:24.519Z,97035.66
2023-05-30T18:38:52.856Z,97047.78
2023-05-30T18:41:20.627Z,97041.09
2023-05-30T18:43:48.236Z,97048.13
2023-05-30T18:46:16.639Z,97051.84
2023-05-30T18:48:46.540Z,97051.22
2023-05-30T18:51:15.102Z,97054.00
2023-05-30T18:53:43.129Z,97072.44
2023-05-30T18:56:12.192Z,97072.44
2023-05-30T18:58:39.633Z,97071.00
2023-05-30T19:01:06.392Z,97078.91
2023-05-30T19:03:33.198Z,97081.72
2023-05-30T19:06:00.177Z,97069.84
2023-05-30T19:08:27.025Z,97074.38
2023-05-30T19:10:53.640Z,97083.94
2023-05-30T19:13:20.410Z,97084.16
2023-05-30T19:15:47.260Z,97085.91
2023-05-30T19:18:13.978Z,97082.72
2023-05-30T19:20:40.766Z,97087.16
2023-05-30T19:23:07.495Z,97088.19
2023-05-30T19:25:34.081Z,97095.91
2023-05-30T19:28:05.970Z,97104.72
2023-05-30T19:30:36.556Z,97101.38
2023-05-30T19:33:03.816Z,97101.50
2023-05-30T19:35:30.614Z,97112.78
2023-05-30T19:37:58.968Z,97119.81
2023-05-30T19:40:27.543Z,97122.50
2023-05-30T19:42:54.619Z,97131.22
2023-05-30T19:45:21.233Z,97121.84
2023-05-30T19:47:49.869Z,97128.84
2023-05-30T19:50:16.723Z,97124.56
2023-05-30T19:52:43.304Z,97128.19
2023-05-30T19:55:11.296Z,97130.84
2023-05-30T19:57:38.041Z,97128.28
2023-05-30T20:00:06.168Z,97133.59
2023-05-30T20:02:34.146Z,97131.97
2023-05-30T20:05:01.183Z,97132.94
2023-05-30T20:07:28.849Z,97137.38
2023-05-30T20:09:57.192Z,97143.41
2023-05-30T20:12:23.937Z,97148.66
2023-05-30T20:14:50.671Z,97147.88
2023-05-30T20:17:17.544Z,97159.16
2023-05-30T20:19:47.431Z,97150.56
2023-05-30T20:22:14.030Z,97155.81
2023-05-30T20:24:40.610Z,97163.69
2023-05-30T20:27:07.662Z,97158.56
2023-05-30T20:29:34.398Z,97153.50
2023-05-30T20:32:01.464Z,97156.91
2023-05-30T20:34:28.182Z,97157.00
2023-05-30T20:36:54.823Z,97164.78
2023-05-30T20:39:23.203Z,97167.38
2023-05-30T20:41:50.435Z,97166.63
2023-05-30T20:44:17.271Z,97164.03
2023-05-30T20:46:43.947Z,97161.50
2023-05-30T20:49:10.679Z,97173.59
2023-05-30T20:51:37.495Z,97181.41
2023-05-30T20:54:04.220Z,97177.16
2023-05-30T20:56:31.102Z,97178.94
2023-05-30T20:58:57.676Z,97180.66
2023-05-30T21:01:26.472Z,97178.13
2023-05-30T21:03:53.450Z,97181.59
2023-05-30T21:06:20.167Z,97184.19
2023-05-30T21:08:46.767Z,97187.69
2023-05-30T21:11:13.547Z,97191.22
2023-05-30T21:13:41.827Z,97193.03
2023-05-30T21:16:08.866Z,97192.16
2023-05-30T21:18:36.005Z,97193.13
2023-05-30T21:21:03.218Z,97197.47
2023-05-30T21:23:29.987Z,97206.13
2023-05-30T21:25:56.513Z,97199.31
2023-05-30T21:28:23.335Z,97201.91
2023-05-30T21:30:49.866Z,97205.38
2023-05-30T21:33:16.707Z,97196.09
2023-05-30T21:35:43.240Z,97206.41
2023-05-30T21:38:09.872Z,97196.19
2023-05-30T21:40:40.782Z,97206.53
2023-05-30T21:43:07.540Z,97210.03
2023-05-30T21:45:34.087Z,97206.66
2023-05-30T21:48:00.700Z,97202.38
2023-05-30T21:50:27.461Z,97212.75
2023-05-30T21:52:53.955Z,97209.34
2023-05-30T21:55:20.578Z,97199.91
2023-05-30T21:57:47.202Z,97206.81
2023-05-30T22:00:14.385Z,97202.53
2023-05-30T22:02:41.703Z,97209.44
2023-05-30T22:06:01.614Z,97215.47
2023-05-30T22:08:28.265Z,97212.06
2023-05-30T22:10:55.093Z,97219.81
2023-05-30T22:13:23.780Z,97221.56
2023-05-30T22:15:50.647Z,97212.97
2023-05-30T22:18:17.845Z,97212.16
2023-05-30T22:20:44.650Z,97211.28
2023-05-30T22:23:11.404Z,97213.88
2023-05-30T22:25:38.168Z,97209.63
2023-05-30T22:28:04.668Z,97207.97
2023-05-30T22:30:33.175Z,97218.25
2023-05-30T22:32:59.801Z,97212.28
2023-05-30T22:35:26.384Z,97204.56
2023-05-30T22:37:52.896Z,97212.31
2023-05-30T22:40:19.592Z,97213.22
2023-05-30T22:42:46.130Z,97215.81
2023-05-30T22:45:12.837Z,97206.38
2023-05-30T22:47:39.425Z,97202.09
2023-05-30T22:50:06.924Z,97199.53
2023-05-30T22:52:33.386Z,97199.53
2023-05-30T22:54:59.861Z,97201.28
2023-05-30T22:57:26.373Z,97196.97
2023-05-30T22:59:53.020Z,97179.00
2023-05-30T23:02:19.800Z,97184.97
2023-05-30T23:04:47.131Z,97180.69
2023-05-30T23:07:13.799Z,97172.13
2023-05-30T23:09:40.472Z,97176.47
2023-05-30T23:12:07.538Z,97177.31
2023-05-30T23:14:34.128Z,97167.03
2023-05-30T23:17:00.714Z,97166.22
2023-05-30T23:19:27.401Z,97167.94
2023-05-30T23:21:53.830Z,97161.09
2023-05-30T23:24:20.426Z,97155.97
2023-05-30T23:26:46.930Z,97159.41
2023-05-30T23:29:13.657Z,97163.72
2023-05-30T23:31:40.352Z,97160.28
2023-05-30T23:34:06.949Z,97161.16
2023-05-30T23:36:33.512Z,97162.03
2023-05-30T23:39:00.141Z,97162.06
2023-05-30T23:41:27.062Z,97166.38
2023-05-30T23:43:53.658Z,97156.06
2023-05-30T23:46:20.274Z,97157.81
2023-05-30T23:48:46.844Z,97150.91
2023-05-30T23:51:17.804Z,97150.94
2023-05-30T23:53:45.003Z,97153.53
2023-05-30T23:56:12.987Z,97151.81
2023-05-30T23:58:39.646Z,97149.25
